sensor_id;sensor_type;location;lat;lon;timestamp;P1;durP1;ratioP1;P2;durP2;ratioP2
3337;SDS011;1682;49.286;10.788;2022-09-09T00:00:12;3.73;;;2.17;;
3337;SDS011;1682;49.286;10.788;2022-09-09T00:02:41;3.30;;;1.87;;
3337;SDS011;1682;49.286;10.788;2022-09-09T00:05:14;2.60;;;2.40;;
3337;SDS011;1682;49.286;10.788;2022-09-09T00:07:48;3.30;;;2.27;;
3337;SDS011;1682;49.286;10.788;2022-09-09T00:10:17;5.67;;;2.80;;
3337;SDS011;1682;49.286;10.788;2022-09-09T00:12:48;2.20;;;2.00;;
3337;SDS011;1682;49.286;10.788;2022-09-09T00:15:20;4.37;;;1.80;;
3337;SDS011;1682;49.286;10.788;2022-09-09T00:17:51;2.07;;;1.87;;
3337;SDS011;1682;49.286;10.788;2022-09-09T00:20:20;1.87;;;1.77;;
3337;SDS011;1682;49.286;10.788;2022-09-09T00:22:53;2.90;;;1.90;;
3337;SDS011;1682;49.286;10.788;2022-09-09T00:25:27;2.13;;;1.90;;
3337;SDS011;1682;49.286;10.788;2022-09-09T00:27:55;1.73;;;1.63;;
3337;SDS011;1682;49.286;10.788;2022-09-09T00:30:23;2.37;;;1.57;;
3337;SDS011;1682;49.286;10.788;2022-09-09T00:32:53;8.50;;;1.80;;
3337;SDS011;1682;49.286;10.788;2022-09-09T00:35:24;2.10;;;1.83;;
3337;SDS011;1682;49.286;10.788;2022-09-09T00:37:51;2.63;;;2.07;;
3337;SDS011;1682;49.286;10.788;2022-09-09T00:40:24;2.50;;;1.80;;
3337;SDS011;1682;49.286;10.788;2022-09-09T00:42:55;2.30;;;2.10;;
3337;SDS011;1682;49.286;10.788;2022-09-09T00:45:32;1.73;;;1.63;;
3337;SDS011;1682;49.286;10.788;2022-09-09T00:48:03;2.13;;;1.93;;
3337;SDS011;1682;49.286;10.788;2022-09-09T00:50:38;3.53;;;2.33;;
3337;SDS011;1682;49.286;10.788;2022-09-09T00:53:13;3.70;;;3.40;;
3337;SDS011;1682;49.286;10.788;2022-09-09T00:55:46;3.60;;;3.03;;
3337;SDS011;1682;49.286;10.788;2022-09-09T00:58:15;3.00;;;2.53;;
3337;SDS011;1682;49.286;10.788;2022-09-09T01:00:43;2.87;;;2.10;;
3337;SDS011;1682;49.286;10.788;2022-09-09T01:03:18;2.13;;;2.03;;
3337;SDS011;1682;49.286;10.788;2022-09-09T01:05:48;2.37;;;2.27;;
3337;SDS011;1682;49.286;10.788;2022-09-09T01:08:25;3.70;;;2.03;;
3337;SDS011;1682;49.286;10.788;2022-09-09T01:11:00;2.67;;;2.47;;
3337;SDS011;1682;49.286;10.788;2022-09-09T01:13:29;3.10;;;2.60;;
3337;SDS011;1682;49.286;10.788;2022-09-09T01:15:57;2.17;;;2.07;;
3337;SDS011;1682;49.286;10.788;2022-09-09T01:18:26;4.00;;;2.13;;
3337;SDS011;1682;49.286;10.788;2022-09-09T01:20:55;2.30;;;2.03;;
3337;SDS011;1682;49.286;10.788;2022-09-09T01:23:29;2.17;;;2.07;;
3337;SDS011;1682;49.286;10.788;2022-09-09T01:26:08;2.43;;;2.07;;
3337;SDS011;1682;49.286;10.788;2022-09-09T01:28:36;1.83;;;1.73;;
3337;SDS011;1682;49.286;10.788;2022-09-09T01:31:04;2.47;;;1.77;;
3337;SDS011;1682;49.286;10.788;2022-09-09T01:33:32;2.33;;;2.13;;
3337;SDS011;1682;49.286;10.788;2022-09-09T01:36:00;2.30;;;2.07;;
3337;SDS011;1682;49.286;10.788;2022-09-09T01:38:31;3.83;;;2.17;;
3337;SDS011;1682;49.286;10.788;2022-09-09T01:40:59;4.60;;;3.27;;
3337;SDS011;1682;49.286;10.788;2022-09-09T01:43:28;6.87;;;4.47;;
3337;SDS011;1682;49.286;10.788;2022-09-09T01:45:56;4.13;;;3.57;;
3337;SDS011;1682;49.286;10.788;2022-09-09T01:48:25;2.10;;;1.77;;
3337;SDS011;1682;49.286;10.788;2022-09-09T01:50:53;1.90;;;1.80;;
3337;SDS011;1682;49.286;10.788;2022-09-09T01:53:20;4.77;;;2.87;;
3337;SDS011;1682;49.286;10.788;2022-09-09T01:55:49;1.73;;;1.63;;
3337;SDS011;1682;49.286;10.788;2022-09-09T01:58:22;3.00;;;1.90;;
3337;SDS011;1682;49.286;10.788;2022-09-09T02:00:56;3.13;;;1.80;;
3337;SDS011;1682;49.286;10.788;2022-09-09T02:03:27;2.20;;;2.00;;
3337;SDS011;1682;49.286;10.788;2022-09-09T02:05:56;4.87;;;1.90;;
3337;SDS011;1682;49.286;10.788;2022-09-09T02:08:25;2.30;;;2.10;;
3337;SDS011;1682;49.286;10.788;2022-09-09T02:10:55;1.87;;;1.73;;
3337;SDS011;1682;49.286;10.788;2022-09-09T02:13:23;4.27;;;2.03;;
3337;SDS011;1682;49.286;10.788;2022-09-09T02:15:52;3.87;;;2.00;;
3337;SDS011;1682;49.286;10.788;2022-09-09T02:18:23;2.53;;;1.90;;
3337;SDS011;1682;49.286;10.788;2022-09-09T02:20:51;4.40;;;2.40;;
3337;SDS011;1682;49.286;10.788;2022-09-09T02:23:19;2.67;;;1.60;;
3337;SDS011;1682;49.286;10.788;2022-09-09T02:25:47;4.20;;;1.67;;
3337;SDS011;1682;49.286;10.788;2022-09-09T02:28:16;2.63;;;2.30;;
3337;SDS011;1682;49.286;10.788;2022-09-09T02:30:46;4.03;;;2.53;;
3337;SDS011;1682;49.286;10.788;2022-09-09T02:33:18;4.50;;;1.83;;
3337;SDS011;1682;49.286;10.788;2022-09-09T02:35:47;2.60;;;2.40;;
3337;SDS011;1682;49.286;10.788;2022-09-09T02:38:15;2.37;;;1.97;;
3337;SDS011;1682;49.286;10.788;2022-09-09T02:40:43;5.40;;;1.83;;
3337;SDS011;1682;49.286;10.788;2022-09-09T02:43:10;3.20;;;2.30;;
3337;SDS011;1682;49.286;10.788;2022-09-09T02:45:39;3.47;;;2.40;;
3337;SDS011;1682;49.286;10.788;2022-09-09T02:48:09;3.20;;;2.90;;
3337;SDS011;1682;49.286;10.788;2022-09-09T02:50:40;5.17;;;4.17;;
3337;SDS011;1682;49.286;10.788;2022-09-09T02:53:11;3.93;;;3.27;;
3337;SDS011;1682;49.286;10.788;2022-09-09T02:55:45;3.17;;;2.40;;
3337;SDS011;1682;49.286;10.788;2022-09-09T02:58:14;2.00;;;1.90;;
3337;SDS011;1682;49.286;10.788;2022-09-09T03:00:43;3.87;;;3.50;;
3337;SDS011;1682;49.286;10.788;2022-09-09T03:03:10;7.23;;;6.80;;
3337;SDS011;1682;49.286;10.788;2022-09-09T03:05:37;5.97;;;3.63;;
3337;SDS011;1682;49.286;10.788;2022-09-09T03:08:05;5.60;;;3.17;;
3337;SDS011;1682;49.286;10.788;2022-09-09T03:10:34;2.47;;;2.27;;
3337;SDS011;1682;49.286;10.788;2022-09-09T03:13:02;2.27;;;1.97;;
3337;SDS011;1682;49.286;10.788;2022-09-09T03:15:30;2.40;;;1.70;;
3337;SDS011;1682;49.286;10.788;2022-09-09T03:17:57;2.80;;;1.63;;
3337;SDS011;1682;49.286;10.788;2022-09-09T03:20:25;2.50;;;2.30;;
3337;SDS011;1682;49.286;10.788;2022-09-09T03:22:53;2.23;;;2.13;;
3337;SDS011;1682;49.286;10.788;2022-09-09T03:25:20;1.87;;;1.70;;
3337;SDS011;1682;49.286;10.788;2022-09-09T03:27:50;1.97;;;1.67;;
3337;SDS011;1682;49.286;10.788;2022-09-09T03:30:19;1.77;;;1.67;;
3337;SDS011;1682;49.286;10.788;2022-09-09T03:32:46;5.60;;;2.00;;
3337;SDS011;1682;49.286;10.788;2022-09-09T03:35:13;2.27;;;1.60;;
3337;SDS011;1682;49.286;10.788;2022-09-09T03:37:41;1.83;;;1.73;;
3337;SDS011;1682;49.286;10.788;2022-09-09T03:40:08;1.90;;;1.70;;
3337;SDS011;1682;49.286;10.788;2022-09-09T03:42:36;2.93;;;1.57;;
3337;SDS011;1682;49.286;10.788;2022-09-09T03:45:05;1.97;;;1.87;;
3337;SDS011;1682;49.286;10.788;2022-09-09T03:47:34;2.50;;;2.20;;
3337;SDS011;1682;49.286;10.788;2022-09-09T03:50:01;4.30;;;1.90;;
3337;SDS011;1682;49.286;10.788;2022-09-09T03:52:29;1.77;;;1.40;;
3337;SDS011;1682;49.286;10.788;2022-09-09T03:54:56;3.90;;;3.03;;
3337;SDS011;1682;49.286;10.788;2022-09-09T03:57:23;4.67;;;1.90;;
3337;SDS011;1682;49.286;10.788;2022-09-09T03:59:50;3.13;;;1.50;;
3337;SDS011;1682;49.286;10.788;2022-09-09T04:02:19;3.23;;;2.13;;
3337;SDS011;1682;49.286;10.788;2022-09-09T04:04:46;2.63;;;1.60;;
3337;SDS011;1682;49.286;10.788;2022-09-09T04:07:13;2.47;;;2.33;;
3337;SDS011;1682;49.286;10.788;2022-09-09T04:09:40;2.70;;;1.80;;
3337;SDS011;1682;49.286;10.788;2022-09-09T04:12:08;1.67;;;1.57;;
3337;SDS011;1682;49.286;10.788;2022-09-09T04:14:38;1.90;;;1.80;;
3337;SDS011;1682;49.286;10.788;2022-09-09T04:17:05;1.80;;;1.60;;
3337;SDS011;1682;49.286;10.788;2022-09-09T04:19:34;2.07;;;1.97;;
3337;SDS011;1682;49.286;10.788;2022-09-09T04:22:01;2.33;;;2.13;;
3337;SDS011;1682;49.286;10.788;2022-09-09T04:24:28;2.13;;;2.03;;
3337;SDS011;1682;49.286;10.788;2022-09-09T04:26:55;2.90;;;2.03;;
3337;SDS011;1682;49.286;10.788;2022-09-09T04:29:22;2.90;;;1.90;;
3337;SDS011;1682;49.286;10.788;2022-09-09T04:31:49;3.90;;;1.70;;
3337;SDS011;1682;49.286;10.788;2022-09-09T04:34:17;1.87;;;1.67;;
3337;SDS011;1682;49.286;10.788;2022-09-09T04:36:45;8.30;;;5.93;;
3337;SDS011;1682;49.286;10.788;2022-09-09T04:39:12;22.80;;;13.83;;
3337;SDS011;1682;49.286;10.788;2022-09-09T04:41:39;10.63;;;5.83;;
3337;SDS011;1682;49.286;10.788;2022-09-09T04:44:06;5.40;;;5.00;;
3337;SDS011;1682;49.286;10.788;2022-09-09T04:46:34;5.40;;;3.70;;
3337;SDS011;1682;49.286;10.788;2022-09-09T04:49:01;4.43;;;3.90;;
3337;SDS011;1682;49.286;10.788;2022-09-09T04:51:29;3.77;;;3.57;;
3337;SDS011;1682;49.286;10.788;2022-09-09T04:53:57;5.77;;;5.40;;
3337;SDS011;1682;49.286;10.788;2022-09-09T04:56:24;3.77;;;3.43;;
3337;SDS011;1682;49.286;10.788;2022-09-09T04:58:53;4.20;;;3.90;;
3337;SDS011;1682;49.286;10.788;2022-09-09T05:01:20;4.00;;;3.47;;
3337;SDS011;1682;49.286;10.788;2022-09-09T05:03:48;4.70;;;4.30;;
3337;SDS011;1682;49.286;10.788;2022-09-09T05:06:17;7.73;;;6.83;;
3337;SDS011;1682;49.286;10.788;2022-09-09T05:08:45;5.60;;;5.17;;
3337;SDS011;1682;49.286;10.788;2022-09-09T05:11:15;5.50;;;4.40;;
3337;SDS011;1682;49.286;10.788;2022-09-09T05:13:42;6.47;;;5.50;;
3337;SDS011;1682;49.286;10.788;2022-09-09T05:16:09;4.53;;;4.03;;
3337;SDS011;1682;49.286;10.788;2022-09-09T05:18:37;7.40;;;6.70;;
3337;SDS011;1682;49.286;10.788;2022-09-09T05:21:04;7.17;;;6.47;;
3337;SDS011;1682;49.286;10.788;2022-09-09T05:23:31;4.63;;;3.80;;
3337;SDS011;1682;49.286;10.788;2022-09-09T05:25:59;6.80;;;6.20;;
3337;SDS011;1682;49.286;10.788;2022-09-09T05:28:27;5.20;;;2.50;;
3337;SDS011;1682;49.286;10.788;2022-09-09T05:30:56;4.83;;;4.33;;
3337;SDS011;1682;49.286;10.788;2022-09-09T05:33:23;5.23;;;2.47;;
3337;SDS011;1682;49.286;10.788;2022-09-09T05:35:54;3.63;;;2.80;;
3337;SDS011;1682;49.286;10.788;2022-09-09T05:38:22;3.30;;;3.00;;
3337;SDS011;1682;49.286;10.788;2022-09-09T05:40:50;2.27;;;2.10;;
3337;SDS011;1682;49.286;10.788;2022-09-09T05:43:17;6.13;;;2.40;;
3337;SDS011;1682;49.286;10.788;2022-09-09T05:45:46;2.70;;;2.50;;
3337;SDS011;1682;49.286;10.788;2022-09-09T05:48:13;4.93;;;2.80;;
3337;SDS011;1682;49.286;10.788;2022-09-09T05:50:41;2.60;;;2.40;;
3337;SDS011;1682;49.286;10.788;2022-09-09T05:53:10;3.53;;;2.20;;
3337;SDS011;1682;49.286;10.788;2022-09-09T05:55:37;4.93;;;2.60;;
3337;SDS011;1682;49.286;10.788;2022-09-09T05:58:04;3.30;;;2.90;;
3337;SDS011;1682;49.286;10.788;2022-09-09T06:00:31;3.87;;;3.50;;
3337;SDS011;1682;49.286;10.788;2022-09-09T06:03:00;5.30;;;4.80;;
3337;SDS011;1682;49.286;10.788;2022-09-09T06:05:27;5.80;;;4.87;;
3337;SDS011;1682;49.286;10.788;2022-09-09T06:07:55;14.87;;;11.00;;
3337;SDS011;1682;49.286;10.788;2022-09-09T06:10:22;10.30;;;8.30;;
3337;SDS011;1682;49.286;10.788;2022-09-09T06:12:52;6.87;;;5.17;;
3337;SDS011;1682;49.286;10.788;2022-09-09T06:15:19;6.70;;;3.30;;
3337;SDS011;1682;49.286;10.788;2022-09-09T06:17:46;4.20;;;3.10;;
3337;SDS011;1682;49.286;10.788;2022-09-09T06:20:16;2.43;;;2.23;;
3337;SDS011;1682;49.286;10.788;2022-09-09T06:22:43;2.90;;;2.70;;
3337;SDS011;1682;49.286;10.788;2022-09-09T06:25:11;3.00;;;2.43;;
3337;SDS011;1682;49.286;10.788;2022-09-09T06:27:39;2.70;;;2.27;;
3337;SDS011;1682;49.286;10.788;2022-09-09T06:30:07;3.57;;;3.10;;
3337;SDS011;1682;49.286;10.788;2022-09-09T06:32:34;2.50;;;2.10;;
3337;SDS011;1682;49.286;10.788;2022-09-09T06:35:03;3.37;;;2.27;;
3337;SDS011;1682;49.286;10.788;2022-09-09T06:37:31;3.00;;;2.37;;
3337;SDS011;1682;49.286;10.788;2022-09-09T06:39:58;2.13;;;1.93;;
3337;SDS011;1682;49.286;10.788;2022-09-09T06:42:25;2.60;;;2.30;;
3337;SDS011;1682;49.286;10.788;2022-09-09T06:44:53;3.10;;;2.80;;
3337;SDS011;1682;49.286;10.788;2022-09-09T06:47:20;6.43;;;3.13;;
3337;SDS011;1682;49.286;10.788;2022-09-09T06:49:47;2.37;;;2.20;;
3337;SDS011;1682;49.286;10.788;2022-09-09T06:52:14;2.70;;;2.17;;
3337;SDS011;1682;49.286;10.788;2022-09-09T06:54:44;3.43;;;2.30;;
3337;SDS011;1682;49.286;10.788;2022-09-09T06:57:11;2.20;;;2.10;;
3337;SDS011;1682;49.286;10.788;2022-09-09T06:59:38;2.33;;;2.13;;
3337;SDS011;1682;49.286;10.788;2022-09-09T07:02:07;2.53;;;2.33;;
3337;SDS011;1682;49.286;10.788;2022-09-09T07:04:34;2.70;;;1.93;;
3337;SDS011;1682;49.286;10.788;2022-09-09T07:07:02;1.90;;;1.80;;
3337;SDS011;1682;49.286;10.788;2022-09-09T07:09:29;1.70;;;1.60;;
3337;SDS011;1682;49.286;10.788;2022-09-09T07:11:58;2.27;;;1.60;;
3337;SDS011;1682;49.286;10.788;2022-09-09T07:14:25;3.33;;;2.30;;
3337;SDS011;1682;49.286;10.788;2022-09-09T07:16:52;2.23;;;2.00;;
3337;SDS011;1682;49.286;10.788;2022-09-09T07:19:19;4.80;;;1.80;;
3337;SDS011;1682;49.286;10.788;2022-09-09T07:21:47;2.20;;;1.90;;
3337;SDS011;1682;49.286;10.788;2022-09-09T07:24:14;3.73;;;2.97;;
3337;SDS011;1682;49.286;10.788;2022-09-09T07:26:41;3.03;;;1.63;;
3337;SDS011;1682;49.286;10.788;2022-09-09T07:29:10;1.67;;;1.50;;
3337;SDS011;1682;49.286;10.788;2022-09-09T07:31:39;3.67;;;1.70;;
3337;SDS011;1682;49.286;10.788;2022-09-09T07:34:06;2.70;;;2.20;;
3337;SDS011;1682;49.286;10.788;2022-09-09T07:36:34;2.23;;;1.70;;
3337;SDS011;1682;49.286;10.788;2022-09-09T07:39:02;1.50;;;1.40;;
3337;SDS011;1682;49.286;10.788;2022-09-09T07:41:31;8.30;;;1.90;;
3337;SDS011;1682;49.286;10.788;2022-09-09T07:43:59;4.00;;;2.87;;
3337;SDS011;1682;49.286;10.788;2022-09-09T07:46:28;1.83;;;1.50;;
3337;SDS011;1682;49.286;10.788;2022-09-09T07:48:56;1.63;;;1.53;;
3337;SDS011;1682;49.286;10.788;2022-09-09T07:51:24;3.07;;;1.43;;
3337;SDS011;1682;49.286;10.788;2022-09-09T07:53:52;1.23;;;1.13;;
3337;SDS011;1682;49.286;10.788;2022-09-09T07:56:19;6.53;;;1.50;;
3337;SDS011;1682;49.286;10.788;2022-09-09T07:58:48;1.30;;;1.30;;
3337;SDS011;1682;49.286;10.788;2022-09-09T08:01:16;6.87;;;2.23;;
3337;SDS011;1682;49.286;10.788;2022-09-09T08:03:45;1.77;;;1.23;;
3337;SDS011;1682;49.286;10.788;2022-09-09T08:06:13;2.93;;;1.43;;
3337;SDS011;1682;49.286;10.788;2022-09-09T08:08:40;2.80;;;1.80;;
3337;SDS011;1682;49.286;10.788;2022-09-09T08:11:09;1.63;;;1.00;;
3337;SDS011;1682;49.286;10.788;2022-09-09T08:13:37;1.53;;;1.30;;
3337;SDS011;1682;49.286;10.788;2022-09-09T08:16:08;1.40;;;1.30;;
3337;SDS011;1682;49.286;10.788;2022-09-09T08:18:36;1.53;;;1.20;;
3337;SDS011;1682;49.286;10.788;2022-09-09T08:21:06;2.73;;;1.47;;
3337;SDS011;1682;49.286;10.788;2022-09-09T08:23:34;1.20;;;1.10;;
3337;SDS011;1682;49.286;10.788;2022-09-09T08:26:05;1.47;;;1.20;;
3337;SDS011;1682;49.286;10.788;2022-09-09T08:28:34;2.17;;;1.80;;
3337;SDS011;1682;49.286;10.788;2022-09-09T08:31:05;2.93;;;1.37;;
3337;SDS011;1682;49.286;10.788;2022-09-09T08:33:32;1.87;;;1.00;;
3337;SDS011;1682;49.286;10.788;2022-09-09T08:36:01;2.30;;;1.10;;
3337;SDS011;1682;49.286;10.788;2022-09-09T08:38:30;2.63;;;1.83;;
3337;SDS011;1682;49.286;10.788;2022-09-09T08:40:59;2.13;;;1.67;;
3337;SDS011;1682;49.286;10.788;2022-09-09T08:43:29;1.77;;;1.03;;
3337;SDS011;1682;49.286;10.788;2022-09-09T08:45:58;9.93;;;1.37;;
3337;SDS011;1682;49.286;10.788;2022-09-09T08:48:34;6.50;;;3.10;;
3337;SDS011;1682;49.286;10.788;2022-09-09T08:51:06;2.20;;;1.97;;
3337;SDS011;1682;49.286;10.788;2022-09-09T08:53:36;1.70;;;1.43;;
3337;SDS011;1682;49.286;10.788;2022-09-09T08:56:08;3.10;;;2.07;;
3337;SDS011;1682;49.286;10.788;2022-09-09T08:58:39;2.70;;;1.20;;
3337;SDS011;1682;49.286;10.788;2022-09-09T09:01:17;1.20;;;1.07;;
3337;SDS011;1682;49.286;10.788;2022-09-09T09:03:48;2.30;;;1.43;;
3337;SDS011;1682;49.286;10.788;2022-09-09T09:06:20;1.00;;;1.00;;
3337;SDS011;1682;49.286;10.788;2022-09-09T09:08:54;2.10;;;1.10;;
3337;SDS011;1682;49.286;10.788;2022-09-09T09:11:22;2.50;;;1.00;;
3337;SDS011;1682;49.286;10.788;2022-09-09T09:13:51;3.17;;;1.40;;
3337;SDS011;1682;49.286;10.788;2022-09-09T09:16:23;3.53;;;1.03;;
3337;SDS011;1682;49.286;10.788;2022-09-09T09:18:52;2.93;;;1.30;;
3337;SDS011;1682;49.286;10.788;2022-09-09T09:21:21;10.00;;;1.23;;
3337;SDS011;1682;49.286;10.788;2022-09-09T09:23:55;0.90;;;0.90;;
3337;SDS011;1682;49.286;10.788;2022-09-09T09:26:23;1.10;;;1.00;;
3337;SDS011;1682;49.286;10.788;2022-09-09T09:28:51;1.10;;;0.87;;
3337;SDS011;1682;49.286;10.788;2022-09-09T09:31:21;1.03;;;0.93;;
3337;SDS011;1682;49.286;10.788;2022-09-09T09:33:52;2.80;;;2.00;;
3337;SDS011;1682;49.286;10.788;2022-09-09T09:36:20;2.90;;;1.30;;
3337;SDS011;1682;49.286;10.788;2022-09-09T09:38:55;1.47;;;1.37;;
3337;SDS011;1682;49.286;10.788;2022-09-09T09:41:29;0.80;;;0.80;;
3337;SDS011;1682;49.286;10.788;2022-09-09T09:43:56;1.77;;;0.90;;
3337;SDS011;1682;49.286;10.788;2022-09-09T09:46:24;1.10;;;0.90;;
3337;SDS011;1682;49.286;10.788;2022-09-09T09:48:58;3.53;;;2.17;;
3337;SDS011;1682;49.286;10.788;2022-09-09T09:51:25;3.00;;;1.30;;
3337;SDS011;1682;49.286;10.788;2022-09-09T09:53:54;2.93;;;1.20;;
3337;SDS011;1682;49.286;10.788;2022-09-09T09:56:30;1.83;;;0.80;;
3337;SDS011;1682;49.286;10.788;2022-09-09T09:58:58;4.93;;;1.57;;
3337;SDS011;1682;49.286;10.788;2022-09-09T10:01:26;6.43;;;1.43;;
3337;SDS011;1682;49.286;10.788;2022-09-09T10:03:55;2.90;;;1.30;;
3337;SDS011;1682;49.286;10.788;2022-09-09T10:06:30;2.73;;;1.37;;
3337;SDS011;1682;49.286;10.788;2022-09-09T10:08:59;2.90;;;1.00;;
3337;SDS011;1682;49.286;10.788;2022-09-09T10:11:30;2.63;;;1.23;;
3337;SDS011;1682;49.286;10.788;2022-09-09T10:14:00;1.47;;;1.10;;
3337;SDS011;1682;49.286;10.788;2022-09-09T10:16:34;1.00;;;0.93;;
3337;SDS011;1682;49.286;10.788;2022-09-09T10:19:05;1.93;;;1.27;;
3337;SDS011;1682;49.286;10.788;2022-09-09T10:24:25;7.77;;;2.60;;
3337;SDS011;1682;49.286;10.788;2022-09-09T10:26:58;2.20;;;1.20;;
3337;SDS011;1682;49.286;10.788;2022-09-09T10:29:32;2.50;;;1.50;;
3337;SDS011;1682;49.286;10.788;2022-09-09T10:32:07;0.90;;;0.87;;
3337;SDS011;1682;49.286;10.788;2022-09-09T10:34:44;1.37;;;0.80;;
3337;SDS011;1682;49.286;10.788;2022-09-09T10:37:18;1.90;;;1.03;;
3337;SDS011;1682;49.286;10.788;2022-09-09T10:39:49;1.33;;;0.93;;
3337;SDS011;1682;49.286;10.788;2022-09-09T10:42:23;1.13;;;1.03;;
3337;SDS011;1682;49.286;10.788;2022-09-09T10:44:56;1.00;;;0.90;;
3337;SDS011;1682;49.286;10.788;2022-09-09T10:47:29;2.47;;;1.77;;
3337;SDS011;1682;49.286;10.788;2022-09-09T10:50:06;1.67;;;1.00;;
3337;SDS011;1682;49.286;10.788;2022-09-09T10:52:37;1.47;;;1.13;;
3337;SDS011;1682;49.286;10.788;2022-09-09T10:55:09;1.03;;;1.00;;
3337;SDS011;1682;49.286;10.788;2022-09-09T10:57:37;0.87;;;0.87;;
3337;SDS011;1682;49.286;10.788;2022-09-09T11:00:13;1.70;;;1.37;;
3337;SDS011;1682;49.286;10.788;2022-09-09T11:02:42;2.03;;;1.60;;
3337;SDS011;1682;49.286;10.788;2022-09-09T11:05:10;3.10;;;1.80;;
3337;SDS011;1682;49.286;10.788;2022-09-09T11:07:42;1.90;;;1.27;;
3337;SDS011;1682;49.286;10.788;2022-09-09T11:10:17;1.87;;;1.53;;
3337;SDS011;1682;49.286;10.788;2022-09-09T11:12:46;2.63;;;1.50;;
3337;SDS011;1682;49.286;10.788;2022-09-09T11:15:17;2.07;;;1.50;;
3337;SDS011;1682;49.286;10.788;2022-09-09T11:17:46;1.97;;;1.20;;
3337;SDS011;1682;49.286;10.788;2022-09-09T11:20:15;1.67;;;1.57;;
3337;SDS011;1682;49.286;10.788;2022-09-09T11:22:44;1.43;;;1.33;;
3337;SDS011;1682;49.286;10.788;2022-09-09T11:25:14;1.50;;;1.23;;
3337;SDS011;1682;49.286;10.788;2022-09-09T11:27:44;1.10;;;1.00;;
3337;SDS011;1682;49.286;10.788;2022-09-09T11:30:17;1.20;;;1.10;;
3337;SDS011;1682;49.286;10.788;2022-09-09T11:35:33;2.87;;;1.43;;
3337;SDS011;1682;49.286;10.788;2022-09-09T11:38:13;8.97;;;2.60;;
3337;SDS011;1682;49.286;10.788;2022-09-09T11:40:43;14.07;;;5.00;;
3337;SDS011;1682;49.286;10.788;2022-09-09T11:43:13;3.50;;;2.20;;
3337;SDS011;1682;49.286;10.788;2022-09-09T11:45:41;3.37;;;2.10;;
3337;SDS011;1682;49.286;10.788;2022-09-09T11:48:22;6.23;;;2.30;;
3337;SDS011;1682;49.286;10.788;2022-09-09T11:50:57;5.07;;;2.57;;
3337;SDS011;1682;49.286;10.788;2022-09-09T11:53:25;4.07;;;2.10;;
3337;SDS011;1682;49.286;10.788;2022-09-09T11:56:06;3.47;;;1.87;;
3337;SDS011;1682;49.286;10.788;2022-09-09T11:58:38;4.63;;;2.40;;
3337;SDS011;1682;49.286;10.788;2022-09-09T12:01:15;4.17;;;2.40;;
3337;SDS011;1682;49.286;10.788;2022-09-09T12:03:43;2.40;;;1.87;;
3337;SDS011;1682;49.286;10.788;2022-09-09T12:06:13;1.70;;;1.60;;
3337;SDS011;1682;49.286;10.788;2022-09-09T12:08:42;2.90;;;1.90;;
3337;SDS011;1682;49.286;10.788;2022-09-09T12:11:11;1.87;;;1.60;;
3337;SDS011;1682;49.286;10.788;2022-09-09T12:13:39;4.20;;;1.50;;
3337;SDS011;1682;49.286;10.788;2022-09-09T12:16:26;2.47;;;1.63;;
3337;SDS011;1682;49.286;10.788;2022-09-09T12:19:02;1.27;;;1.03;;
3337;SDS011;1682;49.286;10.788;2022-09-09T12:21:33;2.00;;;1.00;;
3337;SDS011;1682;49.286;10.788;2022-09-09T12:24:04;1.20;;;0.87;;
3337;SDS011;1682;49.286;10.788;2022-09-09T12:26:34;1.27;;;0.90;;
3337;SDS011;1682;49.286;10.788;2022-09-09T12:29:07;5.03;;;4.73;;
3337;SDS011;1682;49.286;10.788;2022-09-09T12:31:39;3.63;;;0.97;;
3337;SDS011;1682;49.286;10.788;2022-09-09T12:34:11;1.67;;;1.00;;
3337;SDS011;1682;49.286;10.788;2022-09-09T12:36:41;2.30;;;0.97;;
3337;SDS011;1682;49.286;10.788;2022-09-09T12:39:10;0.90;;;0.80;;
3337;SDS011;1682;49.286;10.788;2022-09-09T12:41:37;1.43;;;0.73;;
3337;SDS011;1682;49.286;10.788;2022-09-09T12:44:06;0.80;;;0.50;;
3337;SDS011;1682;49.286;10.788;2022-09-09T12:46:35;1.60;;;0.77;;
3337;SDS011;1682;49.286;10.788;2022-09-09T12:49:03;3.63;;;0.80;;
3337;SDS011;1682;49.286;10.788;2022-09-09T12:51:31;4.20;;;1.23;;
3337;SDS011;1682;49.286;10.788;2022-09-09T12:53:59;0.87;;;0.70;;
3337;SDS011;1682;49.286;10.788;2022-09-09T12:56:28;1.83;;;0.70;;
3337;SDS011;1682;49.286;10.788;2022-09-09T12:59:21;2.27;;;1.27;;
3337;SDS011;1682;49.286;10.788;2022-09-09T13:01:54;2.47;;;0.80;;
3337;SDS011;1682;49.286;10.788;2022-09-09T13:04:21;1.55;;;0.80;;
3337;SDS011;1682;49.286;10.788;2022-09-09T13:06:49;1.33;;;1.02;;
3337;SDS011;1682;49.286;10.788;2022-09-09T13:09:17;1.40;;;0.75;;
3337;SDS011;1682;49.286;10.788;2022-09-09T13:11:45;1.55;;;0.70;;
3337;SDS011;1682;49.286;10.788;2022-09-09T13:14:14;1.05;;;0.60;;
3337;SDS011;1682;49.286;10.788;2022-09-09T13:16:53;1.88;;;1.17;;
3337;SDS011;1682;49.286;10.788;2022-09-09T13:19:21;1.03;;;0.80;;
3337;SDS011;1682;49.286;10.788;2022-09-09T13:21:50;0.70;;;0.70;;
3337;SDS011;1682;49.286;10.788;2022-09-09T13:24:24;0.80;;;0.73;;
3337;SDS011;1682;49.286;10.788;2022-09-09T13:26:54;1.73;;;0.70;;
3337;SDS011;1682;49.286;10.788;2022-09-09T13:29:22;1.47;;;0.80;;
3337;SDS011;1682;49.286;10.788;2022-09-09T13:31:50;1.53;;;0.80;;
3337;SDS011;1682;49.286;10.788;2022-09-09T13:34:26;1.70;;;0.83;;
3337;SDS011;1682;49.286;10.788;2022-09-09T13:36:54;1.08;;;1.05;;
3337;SDS011;1682;49.286;10.788;2022-09-09T13:39:24;1.52;;;1.42;;
3337;SDS011;1682;49.286;10.788;2022-09-09T13:41:51;1.08;;;0.98;;
3337;SDS011;1682;49.286;10.788;2022-09-09T13:44:20;1.48;;;1.33;;
3337;SDS011;1682;49.286;10.788;2022-09-09T13:47:00;2.35;;;2.08;;
3337;SDS011;1682;49.286;10.788;2022-09-09T13:49:28;2.90;;;1.08;;
3337;SDS011;1682;49.286;10.788;2022-09-09T13:52:02;2.20;;;1.38;;
3337;SDS011;1682;49.286;10.788;2022-09-09T13:54:31;1.80;;;0.87;;
3337;SDS011;1682;49.286;10.788;2022-09-09T13:56:58;2.93;;;1.07;;
3337;SDS011;1682;49.286;10.788;2022-09-09T13:59:26;1.17;;;1.07;;
3337;SDS011;1682;49.286;10.788;2022-09-09T14:01:53;1.10;;;0.80;;
3337;SDS011;1682;49.286;10.788;2022-09-09T14:04:22;2.53;;;1.13;;
3337;SDS011;1682;49.286;10.788;2022-09-09T14:06:50;2.60;;;1.50;;
3337;SDS011;1682;49.286;10.788;2022-09-09T14:09:17;1.20;;;1.10;;
3337;SDS011;1682;49.286;10.788;2022-09-09T14:11:45;4.20;;;1.47;;
3337;SDS011;1682;49.286;10.788;2022-09-09T14:14:12;0.93;;;0.93;;
3337;SDS011;1682;49.286;10.788;2022-09-09T14:16:39;1.90;;;1.10;;
3337;SDS011;1682;49.286;10.788;2022-09-09T14:19:07;2.30;;;1.13;;
3337;SDS011;1682;49.286;10.788;2022-09-09T14:21:36;0.97;;;0.87;;
3337;SDS011;1682;49.286;10.788;2022-09-09T14:24:04;1.97;;;0.80;;
3337;SDS011;1682;49.286;10.788;2022-09-09T14:26:31;3.03;;;1.43;;
3337;SDS011;1682;49.286;10.788;2022-09-09T14:28:58;1.30;;;1.20;;
3337;SDS011;1682;49.286;10.788;2022-09-09T14:31:26;1.03;;;0.90;;
3337;SDS011;1682;49.286;10.788;2022-09-09T14:33:53;0.70;;;0.70;;
3337;SDS011;1682;49.286;10.788;2022-09-09T14:36:21;0.63;;;0.63;;
3337;SDS011;1682;49.286;10.788;2022-09-09T14:38:50;1.10;;;0.90;;
3337;SDS011;1682;49.286;10.788;2022-09-09T14:41:18;1.70;;;0.67;;
3337;SDS011;1682;49.286;10.788;2022-09-09T14:43:47;2.03;;;1.93;;
3337;SDS011;1682;49.286;10.788;2022-09-09T14:46:15;1.37;;;1.30;;
3337;SDS011;1682;49.286;10.788;2022-09-09T14:48:43;0.60;;;0.60;;
3337;SDS011;1682;49.286;10.788;2022-09-09T14:51:14;0.70;;;0.70;;
3337;SDS011;1682;49.286;10.788;2022-09-09T14:53:42;0.60;;;0.60;;
3337;SDS011;1682;49.286;10.788;2022-09-09T14:56:11;0.90;;;0.90;;
3337;SDS011;1682;49.286;10.788;2022-09-09T14:58:39;0.70;;;0.70;;
3337;SDS011;1682;49.286;10.788;2022-09-09T15:01:06;2.50;;;0.80;;
3337;SDS011;1682;49.286;10.788;2022-09-09T15:03:34;0.60;;;0.60;;
3337;SDS011;1682;49.286;10.788;2022-09-09T15:06:06;1.10;;;0.77;;
3337;SDS011;1682;49.286;10.788;2022-09-09T15:08:34;1.00;;;0.67;;
3337;SDS011;1682;49.286;10.788;2022-09-09T15:11:01;0.60;;;0.60;;
3337;SDS011;1682;49.286;10.788;2022-09-09T15:13:30;0.60;;;0.60;;
3337;SDS011;1682;49.286;10.788;2022-09-09T15:16:03;0.97;;;0.70;;
3337;SDS011;1682;49.286;10.788;2022-09-09T15:18:30;0.63;;;0.60;;